sensor_id;sensor_type;location;lat;lon;timestamp;noise_LAeq;noise_LA_min;noise_LA_max;noise_LA01;noise_LA95
40465;Laerm;30489;48.982;8.394;2023-09-19T00:01:24;39.29;36.91;41.14;;
40465;Laerm;30489;48.982;8.394;2023-09-19T00:03:34;39.27;36.91;41.61;;
40465;Laerm;30489;48.982;8.394;2023-09-19T00:05:47;39.30;37.12;41.06;;
40465;Laerm;30489;48.982;8.394;2023-09-19T00:07:58;39.32;36.91;40.98;;
40465;Laerm;30489;48.982;8.394;2023-09-19T00:10:08;39.34;36.69;41.06;;
40465;Laerm;30489;48.982;8.394;2023-09-19T00:12:19;39.39;36.69;41.14;;
40465;Laerm;30489;48.982;8.394;2023-09-19T00:14:30;39.40;36.91;41.22;;
40465;Laerm;30489;48.982;8.394;2023-09-19T00:16:40;39.37;36.91;41.22;;
40465;Laerm;30489;48.982;8.394;2023-09-19T00:18:51;39.38;37.12;41.30;;
40465;Laerm;30489;48.982;8.394;2023-09-19T00:21:01;39.28;36.91;41.30;;
40465;Laerm;30489;48.982;8.394;2023-09-19T00:23:11;39.33;36.91;41.68;;
40465;Laerm;30489;48.982;8.394;2023-09-19T00:25:21;39.43;36.91;42.09;;
40465;Laerm;30489;48.982;8.394;2023-09-19T00:27:31;39.39;36.91;43.44;;
40465;Laerm;30489;48.982;8.394;2023-09-19T00:29:43;39.40;36.91;41.06;;
40465;Laerm;30489;48.982;8.394;2023-09-19T00:31:53;39.41;37.32;41.14;;
40465;Laerm;30489;48.982;8.394;2023-09-19T00:34:04;39.41;37.12;40.98;;
40465;Laerm;30489;48.982;8.394;2023-09-19T00:36:14;39.37;37.32;41.14;;
40465;Laerm;30489;48.982;8.394;2023-09-19T00:38:24;39.41;37.32;41.06;;
40465;Laerm;30489;48.982;8.394;2023-09-19T00:40:36;39.34;37.12;41.81;;
40465;Laerm;30489;48.982;8.394;2023-09-19T00:42:47;39.35;37.12;44.23;;
40465;Laerm;30489;48.982;8.394;2023-09-19T00:44:58;39.39;36.91;41.14;;
40465;Laerm;30489;48.982;8.394;2023-09-19T00:47:08;39.41;37.32;42.09;;
40465;Laerm;30489;48.982;8.394;2023-09-19T00:49:19;39.43;37.32;45.83;;
40465;Laerm;30489;48.982;8.394;2023-09-19T00:51:32;39.48;37.52;41.89;;
40465;Laerm;30489;48.982;8.394;2023-09-19T00:53:42;39.46;37.32;41.38;;
40465;Laerm;30489;48.982;8.394;2023-09-19T00:55:56;39.49;36.91;41.33;;
40465;Laerm;30489;48.982;8.394;2023-09-19T00:58:06;39.57;37.32;44.76;;
40465;Laerm;30489;48.982;8.394;2023-09-19T01:00:17;39.52;36.91;42.65;;
40465;Laerm;30489;48.982;8.394;2023-09-19T01:02:29;39.51;37.32;44.35;;
40465;Laerm;30489;48.982;8.394;2023-09-19T01:04:40;39.45;36.91;41.30;;
40465;Laerm;30489;48.982;8.394;2023-09-19T01:06:50;39.38;37.12;42.59;;
40465;Laerm;30489;48.982;8.394;2023-09-19T01:09:03;39.52;37.12;48.00;;
40465;Laerm;30489;48.982;8.394;2023-09-19T01:11:21;39.53;37.12;41.46;;
40465;Laerm;30489;48.982;8.394;2023-09-19T01:13:55;39.48;37.12;42.71;;
40465;Laerm;30489;48.982;8.394;2023-09-19T01:18:35;39.55;37.52;44.51;;
40465;Laerm;30489;48.982;8.394;2023-09-19T01:26:04;39.44;37.32;41.89;;
40465;Laerm;30489;48.982;8.394;2023-09-19T01:28:29;39.47;37.32;41.38;;
40465;Laerm;30489;48.982;8.394;2023-09-19T01:30:42;39.54;37.70;41.30;;
40465;Laerm;30489;48.982;8.394;2023-09-19T01:32:53;39.45;37.52;41.46;;
40465;Laerm;30489;48.982;8.394;2023-09-19T01:35:04;39.47;37.32;41.46;;
40465;Laerm;30489;48.982;8.394;2023-09-19T01:37:14;39.44;36.91;46.30;;
40465;Laerm;30489;48.982;8.394;2023-09-19T01:39:28;39.46;36.91;41.22;;
40465;Laerm;30489;48.982;8.394;2023-09-19T01:43:49;39.58;37.52;45.14;;
40465;Laerm;30489;48.982;8.394;2023-09-19T01:46:04;39.50;37.52;42.22;;
40465;Laerm;30489;48.982;8.394;2023-09-19T01:52:45;39.72;37.70;41.61;;
40465;Laerm;30489;48.982;8.394;2023-09-19T01:54:59;39.61;37.12;42.03;;
40465;Laerm;30489;48.982;8.394;2023-09-19T01:57:27;39.48;37.32;47.32;;
40465;Laerm;30489;48.982;8.394;2023-09-19T01:59:45;39.49;37.52;42.22;;
40465;Laerm;30489;48.982;8.394;2023-09-19T02:01:55;39.54;37.32;41.26;;
40465;Laerm;30489;48.982;8.394;2023-09-19T02:04:07;39.55;37.32;42.35;;
40465;Laerm;30489;48.982;8.394;2023-09-19T02:06:18;39.52;37.52;41.22;;
40465;Laerm;30489;48.982;8.394;2023-09-19T02:08:29;39.49;37.32;41.14;;
40465;Laerm;30489;48.982;8.394;2023-09-19T02:10:41;39.54;37.32;42.09;;
40465;Laerm;30489;48.982;8.394;2023-09-19T02:12:51;39.47;37.32;40.98;;
40465;Laerm;30489;48.982;8.394;2023-09-19T02:15:02;39.56;37.52;41.06;;
40465;Laerm;30489;48.982;8.394;2023-09-19T02:17:12;39.51;37.12;41.30;;
40465;Laerm;30489;48.982;8.394;2023-09-19T02:19:23;39.55;37.52;41.46;;
40465;Laerm;30489;48.982;8.394;2023-09-19T02:21:33;39.49;37.12;41.14;;
40465;Laerm;30489;48.982;8.394;2023-09-19T02:23:44;39.49;37.52;41.14;;
40465;Laerm;30489;48.982;8.394;2023-09-19T02:25:54;39.47;36.69;41.14;;
40465;Laerm;30489;48.982;8.394;2023-09-19T02:28:05;39.50;37.32;41.22;;
40465;Laerm;30489;48.982;8.394;2023-09-19T02:30:15;39.48;37.32;41.30;;
40465;Laerm;30489;48.982;8.394;2023-09-19T02:32:26;39.47;37.52;42.16;;
40465;Laerm;30489;48.982;8.394;2023-09-19T02:34:36;39.44;37.35;41.06;;
40465;Laerm;30489;48.982;8.394;2023-09-19T02:36:46;39.56;37.52;41.38;;
40465;Laerm;30489;48.982;8.394;2023-09-19T02:38:57;39.56;37.52;41.22;;
40465;Laerm;30489;48.982;8.394;2023-09-19T02:41:07;39.55;37.35;41.30;;
40465;Laerm;30489;48.982;8.394;2023-09-19T02:43:17;39.58;37.12;41.53;;
40465;Laerm;30489;48.982;8.394;2023-09-19T02:45:29;39.54;37.32;41.06;;
40465;Laerm;30489;48.982;8.394;2023-09-19T02:47:40;39.50;37.12;41.30;;
40465;Laerm;30489;48.982;8.394;2023-09-19T02:49:50;39.48;37.32;41.30;;
40465;Laerm;30489;48.982;8.394;2023-09-19T02:52:00;39.54;37.52;43.14;;
40465;Laerm;30489;48.982;8.394;2023-09-19T02:54:11;39.66;37.52;41.61;;
40465;Laerm;30489;48.982;8.394;2023-09-19T02:56:21;39.46;37.32;41.22;;
40465;Laerm;30489;48.982;8.394;2023-09-19T02:58:32;39.44;37.12;41.38;;
40465;Laerm;30489;48.982;8.394;2023-09-19T03:00:45;39.54;37.52;41.46;;
40465;Laerm;30489;48.982;8.394;2023-09-19T03:02:57;39.93;37.70;41.75;;
40465;Laerm;30489;48.982;8.394;2023-09-19T03:05:09;39.50;37.32;41.22;;
40465;Laerm;30489;48.982;8.394;2023-09-19T03:07:21;39.39;37.52;40.98;;
40465;Laerm;30489;48.982;8.394;2023-09-19T03:09:31;39.51;37.12;42.13;;
40465;Laerm;30489;48.982;8.394;2023-09-19T03:11:42;39.53;37.32;41.22;;
40465;Laerm;30489;48.982;8.394;2023-09-19T03:13:52;39.58;37.32;47.28;;
40465;Laerm;30489;48.982;8.394;2023-09-19T03:16:06;39.70;37.52;41.38;;
40465;Laerm;30489;48.982;8.394;2023-09-19T03:18:16;39.62;37.32;41.89;;
40465;Laerm;30489;48.982;8.394;2023-09-19T03:20:26;39.81;37.88;41.53;;
40465;Laerm;30489;48.982;8.394;2023-09-19T03:22:37;40.13;38.02;43.90;;
40465;Laerm;30489;48.982;8.394;2023-09-19T03:24:48;40.00;37.12;41.96;;
40465;Laerm;30489;48.982;8.394;2023-09-19T03:26:58;39.93;37.52;41.75;;
40465;Laerm;30489;48.982;8.394;2023-09-19T03:29:08;39.66;37.32;41.75;;
40465;Laerm;30489;48.982;8.394;2023-09-19T03:31:20;39.49;37.32;41.14;;
40465;Laerm;30489;48.982;8.394;2023-09-19T03:33:30;39.74;37.32;41.53;;
40465;Laerm;30489;48.982;8.394;2023-09-19T03:35:45;39.58;37.32;41.30;;
40465;Laerm;30489;48.982;8.394;2023-09-19T03:38:01;39.96;37.52;41.75;;
40465;Laerm;30489;48.982;8.394;2023-09-19T03:40:13;40.01;37.32;41.75;;
40465;Laerm;30489;48.982;8.394;2023-09-19T03:42:23;40.14;37.88;41.96;;
40465;Laerm;30489;48.982;8.394;2023-09-19T03:44:35;40.19;37.52;42.09;;
40465;Laerm;30489;48.982;8.394;2023-09-19T03:46:45;40.09;37.52;42.16;;
40465;Laerm;30489;48.982;8.394;2023-09-19T03:48:55;40.07;37.52;42.16;;
40465;Laerm;30489;48.982;8.394;2023-09-19T03:51:06;40.12;37.88;41.75;;
40465;Laerm;30489;48.982;8.394;2023-09-19T03:53:16;40.07;38.05;41.82;;
40465;Laerm;30489;48.982;8.394;2023-09-19T03:55:26;40.11;37.88;41.89;;
40465;Laerm;30489;48.982;8.394;2023-09-19T03:57:37;40.13;38.05;42.09;;
40465;Laerm;30489;48.982;8.394;2023-09-19T03:59:47;40.26;38.05;42.09;;
40465;Laerm;30489;48.982;8.394;2023-09-19T04:01:57;40.26;37.70;41.96;;
40465;Laerm;30489;48.982;8.394;2023-09-19T04:04:08;40.22;38.05;42.16;;
40465;Laerm;30489;48.982;8.394;2023-09-19T04:06:18;40.15;38.05;41.96;;
40465;Laerm;30489;48.982;8.394;2023-09-19T04:08:28;40.08;37.70;41.68;;
40465;Laerm;30489;48.982;8.394;2023-09-19T04:10:42;40.14;38.05;41.82;;
40465;Laerm;30489;48.982;8.394;2023-09-19T04:12:54;40.14;37.88;41.96;;
40465;Laerm;30489;48.982;8.394;2023-09-19T04:15:05;40.13;37.70;41.82;;
40465;Laerm;30489;48.982;8.394;2023-09-19T04:17:15;40.11;37.70;41.89;;
40465;Laerm;30489;48.982;8.394;2023-09-19T04:19:25;40.17;37.70;41.75;;
40465;Laerm;30489;48.982;8.394;2023-09-19T04:21:36;40.16;37.70;41.68;;
40465;Laerm;30489;48.982;8.394;2023-09-19T04:23:46;40.12;38.05;41.96;;
40465;Laerm;30489;48.982;8.394;2023-09-19T04:25:56;40.05;37.88;41.96;;
40465;Laerm;30489;48.982;8.394;2023-09-19T04:28:07;39.77;37.70;41.46;;
40465;Laerm;30489;48.982;8.394;2023-09-19T04:30:18;39.74;37.52;41.82;;
40465;Laerm;30489;48.982;8.394;2023-09-19T04:32:28;39.67;37.32;41.46;;
40465;Laerm;30489;48.982;8.394;2023-09-19T04:34:38;39.50;36.69;41.14;;
40465;Laerm;30489;48.982;8.394;2023-09-19T04:36:49;39.47;36.91;41.68;;
40465;Laerm;30489;48.982;8.394;2023-09-19T04:38:59;39.31;36.91;41.68;;
40465;Laerm;30489;48.982;8.394;2023-09-19T04:41:09;39.30;36.45;41.75;;
40465;Laerm;30489;48.982;8.394;2023-09-19T04:43:19;39.26;36.69;41.30;;
40465;Laerm;30489;48.982;8.394;2023-09-19T04:45:29;39.23;36.91;41.46;;
40465;Laerm;30489;48.982;8.394;2023-09-19T04:47:40;39.18;36.45;41.46;;
40465;Laerm;30489;48.982;8.394;2023-09-19T04:49:50;39.12;36.69;41.06;;
40465;Laerm;30489;48.982;8.394;2023-09-19T04:52:00;39.12;36.69;41.14;;
40465;Laerm;30489;48.982;8.394;2023-09-19T04:54:10;39.09;36.69;41.14;;
40465;Laerm;30489;48.982;8.394;2023-09-19T04:56:21;39.14;36.91;41.22;;
40465;Laerm;30489;48.982;8.394;2023-09-19T04:58:33;39.11;36.69;41.14;;
40465;Laerm;30489;48.982;8.394;2023-09-19T05:00:43;39.11;36.45;40.98;;
40465;Laerm;30489;48.982;8.394;2023-09-19T05:02:54;39.12;36.91;41.06;;
40465;Laerm;30489;48.982;8.394;2023-09-19T05:05:09;39.13;36.69;40.80;;
40465;Laerm;30489;48.982;8.394;2023-09-19T05:07:26;39.12;36.91;40.98;;
40465;Laerm;30489;48.982;8.394;2023-09-19T05:09:36;39.14;36.91;40.71;;
40465;Laerm;30489;48.982;8.394;2023-09-19T05:11:47;39.15;36.91;40.89;;
40465;Laerm;30489;48.982;8.394;2023-09-19T05:13:58;39.15;36.69;40.98;;
40465;Laerm;30489;48.982;8.394;2023-09-19T05:16:11;39.17;36.91;44.11;;
40465;Laerm;30489;48.982;8.394;2023-09-19T05:18:22;39.16;36.91;41.06;;
40465;Laerm;30489;48.982;8.394;2023-09-19T05:20:32;39.16;36.45;40.80;;
40465;Laerm;30489;48.982;8.394;2023-09-19T05:22:43;39.25;37.12;40.89;;
40465;Laerm;30489;48.982;8.394;2023-09-19T05:24:53;39.27;36.91;41.06;;
40465;Laerm;30489;48.982;8.394;2023-09-19T05:27:03;39.32;37.12;41.38;;
40465;Laerm;30489;48.982;8.394;2023-09-19T05:29:14;39.34;36.45;41.22;;
40465;Laerm;30489;48.982;8.394;2023-09-19T05:31:24;39.35;37.32;41.14;;
40465;Laerm;30489;48.982;8.394;2023-09-19T05:33:35;39.33;36.91;41.38;;
40465;Laerm;30489;48.982;8.394;2023-09-19T05:35:45;39.35;36.91;41.22;;
40465;Laerm;30489;48.982;8.394;2023-09-19T05:37:57;39.32;36.91;41.38;;
40465;Laerm;30489;48.982;8.394;2023-09-19T05:40:08;39.27;36.91;41.06;;
40465;Laerm;30489;48.982;8.394;2023-09-19T05:42:22;39.26;36.91;41.14;;
40465;Laerm;30489;48.982;8.394;2023-09-19T05:44:32;39.34;36.69;41.06;;
40465;Laerm;30489;48.982;8.394;2023-09-19T05:46:43;39.34;36.91;41.14;;
40465;Laerm;30489;48.982;8.394;2023-09-19T05:48:54;39.35;37.12;41.38;;
40465;Laerm;30489;48.982;8.394;2023-09-19T05:51:06;39.34;36.69;41.46;;
40465;Laerm;30489;48.982;8.394;2023-09-19T05:53:16;39.31;36.91;41.22;;
40465;Laerm;30489;48.982;8.394;2023-09-19T05:55:27;39.36;37.32;42.35;;
40465;Laerm;30489;48.982;8.394;2023-09-19T05:57:38;39.39;37.32;41.06;;
40465;Laerm;30489;48.982;8.394;2023-09-19T05:59:49;39.39;36.91;41.38;;
40465;Laerm;30489;48.982;8.394;2023-09-19T06:02:00;39.32;36.91;41.30;;
40465;Laerm;30489;48.982;8.394;2023-09-19T06:04:10;39.27;36.69;40.98;;
40465;Laerm;30489;48.982;8.394;2023-09-19T06:06:21;39.31;37.12;40.89;;
40465;Laerm;30489;48.982;8.394;2023-09-19T06:08:32;39.33;37.12;41.22;;
40465;Laerm;30489;48.982;8.394;2023-09-19T06:10:43;39.34;36.91;41.06;;
40465;Laerm;30489;48.982;8.394;2023-09-19T06:12:53;39.33;37.12;40.98;;
40465;Laerm;30489;48.982;8.394;2023-09-19T06:15:05;39.32;37.12;41.22;;
40465;Laerm;30489;48.982;8.394;2023-09-19T06:17:16;39.32;36.69;41.22;;
40465;Laerm;30489;48.982;8.394;2023-09-19T06:19:27;39.22;37.12;41.30;;
40465;Laerm;30489;48.982;8.394;2023-09-19T06:21:37;39.23;36.91;40.98;;
40465;Laerm;30489;48.982;8.394;2023-09-19T06:23:47;39.20;36.91;41.06;;
40465;Laerm;30489;48.982;8.394;2023-09-19T06:25:57;39.23;36.69;41.06;;
40465;Laerm;30489;48.982;8.394;2023-09-19T06:28:08;39.24;37.12;41.22;;
40465;Laerm;30489;48.982;8.394;2023-09-19T06:30:22;39.24;36.91;41.06;;
40465;Laerm;30489;48.982;8.394;2023-09-19T06:32:34;39.20;36.91;40.89;;
40465;Laerm;30489;48.982;8.394;2023-09-19T06:34:44;39.23;36.91;40.98;;
40465;Laerm;30489;48.982;8.394;2023-09-19T06:36:56;39.25;36.91;40.89;;
40465;Laerm;30489;48.982;8.394;2023-09-19T06:39:07;39.26;37.12;41.14;;
40465;Laerm;30489;48.982;8.394;2023-09-19T06:41:20;39.22;36.91;41.14;;
40465;Laerm;30489;48.982;8.394;2023-09-19T06:43:34;39.25;37.32;40.98;;
40465;Laerm;30489;48.982;8.394;2023-09-19T06:45:45;39.27;37.32;41.30;;
40465;Laerm;30489;48.982;8.394;2023-09-19T06:47:56;39.26;37.17;41.30;;
40465;Laerm;30489;48.982;8.394;2023-09-19T06:50:07;39.24;36.91;41.06;;
40465;Laerm;30489;48.982;8.394;2023-09-19T06:52:23;39.26;36.69;41.14;;
40465;Laerm;30489;48.982;8.394;2023-09-19T06:54:33;39.30;36.91;40.98;;
40465;Laerm;30489;48.982;8.394;2023-09-19T06:56:45;39.32;37.12;41.22;;
40465;Laerm;30489;48.982;8.394;2023-09-19T06:58:55;39.32;37.12;41.46;;
40465;Laerm;30489;48.982;8.394;2023-09-19T07:01:05;39.36;36.91;41.14;;
40465;Laerm;30489;48.982;8.394;2023-09-19T07:03:16;39.36;37.12;41.06;;
40465;Laerm;30489;48.982;8.394;2023-09-19T07:05:28;39.39;36.69;41.14;;
40465;Laerm;30489;48.982;8.394;2023-09-19T07:07:39;39.36;37.12;40.98;;
40465;Laerm;30489;48.982;8.394;2023-09-19T07:09:50;39.36;36.91;42.16;;
40465;Laerm;30489;48.982;8.394;2023-09-19T07:12:01;39.38;37.32;40.89;;
40465;Laerm;30489;48.982;8.394;2023-09-19T07:14:11;39.38;37.32;40.98;;
40465;Laerm;30489;48.982;8.394;2023-09-19T07:16:21;39.41;37.32;41.14;;
40465;Laerm;30489;48.982;8.394;2023-09-19T07:18:39;39.46;37.52;41.22;;
40465;Laerm;30489;48.982;8.394;2023-09-19T07:20:50;39.43;37.52;41.30;;
40465;Laerm;30489;48.982;8.394;2023-09-19T07:23:00;39.46;36.69;41.46;;
40465;Laerm;30489;48.982;8.394;2023-09-19T07:25:11;39.45;37.52;41.89;;
40465;Laerm;30489;48.982;8.394;2023-09-19T07:27:21;39.50;37.12;42.35;;
40465;Laerm;30489;48.982;8.394;2023-09-19T07:29:31;39.47;37.32;41.06;;
40465;Laerm;30489;48.982;8.394;2023-09-19T07:31:41;39.50;37.52;41.38;;
40465;Laerm;30489;48.982;8.394;2023-09-19T07:33:52;39.54;37.52;43.04;;
40465;Laerm;30489;48.982;8.394;2023-09-19T07:36:02;39.59;37.52;41.96;;
40465;Laerm;30489;48.982;8.394;2023-09-19T07:38:12;39.58;37.12;41.68;;
40465;Laerm;30489;48.982;8.394;2023-09-19T07:40:22;39.60;37.70;41.22;;
40465;Laerm;30489;48.982;8.394;2023-09-19T07:42:33;39.63;37.52;41.46;;
40465;Laerm;30489;48.982;8.394;2023-09-19T07:44:45;39.64;37.52;41.33;;
40465;Laerm;30489;48.982;8.394;2023-09-19T07:46:57;39.65;37.70;41.30;;
40465;Laerm;30489;48.982;8.394;2023-09-19T07:49:07;39.66;37.70;41.41;;
40465;Laerm;30489;48.982;8.394;2023-09-19T07:51:18;39.71;37.88;41.38;;
40465;Laerm;30489;48.982;8.394;2023-09-19T07:53:28;39.79;38.05;41.46;;
40465;Laerm;30489;48.982;8.394;2023-09-19T07:55:40;39.77;37.70;42.58;;
40465;Laerm;30489;48.982;8.394;2023-09-19T07:57:54;39.76;37.88;41.38;;
40465;Laerm;30489;48.982;8.394;2023-09-19T08:00:04;39.83;38.05;41.75;;
40465;Laerm;30489;48.982;8.394;2023-09-19T08:02:16;39.84;37.88;41.53;;
40465;Laerm;30489;48.982;8.394;2023-09-19T08:04:28;39.88;38.05;41.38;;
40465;Laerm;30489;48.982;8.394;2023-09-19T08:06:38;39.96;37.88;41.38;;
40465;Laerm;30489;48.982;8.394;2023-09-19T08:08:52;39.95;38.05;41.68;;
40465;Laerm;30489;48.982;8.394;2023-09-19T08:11:04;39.99;38.21;43.54;;
40465;Laerm;30489;48.982;8.394;2023-09-19T08:13:22;40.06;38.37;41.53;;
40465;Laerm;30489;48.982;8.394;2023-09-19T08:15:33;40.09;38.52;41.46;;
40465;Laerm;30489;48.982;8.394;2023-09-19T08:17:43;40.12;38.37;41.61;;
40465;Laerm;30489;48.982;8.394;2023-09-19T08:19:53;40.13;38.05;41.82;;
40465;Laerm;30489;48.982;8.394;2023-09-19T08:22:03;40.11;38.37;41.89;;
40465;Laerm;30489;48.982;8.394;2023-09-19T08:24:14;40.28;38.37;43.90;;
40465;Laerm;30489;48.982;8.394;2023-09-19T08:26:24;40.35;38.21;41.89;;
40465;Laerm;30489;48.982;8.394;2023-09-19T08:28:35;40.27;38.52;41.68;;
40465;Laerm;30489;48.982;8.394;2023-09-19T08:30:45;40.25;38.52;41.61;;
40465;Laerm;30489;48.982;8.394;2023-09-19T08:32:59;40.31;38.47;41.82;;
40465;Laerm;30489;48.982;8.394;2023-09-19T08:35:10;40.45;38.67;41.96;;
40465;Laerm;30489;48.982;8.394;2023-09-19T08:37:20;40.36;38.67;41.96;;
40465;Laerm;30489;48.982;8.394;2023-09-19T08:39:31;40.36;38.37;41.68;;
40465;Laerm;30489;48.982;8.394;2023-09-19T08:41:43;40.36;38.52;42.19;;
40465;Laerm;30489;48.982;8.394;2023-09-19T08:43:53;40.31;38.52;41.75;;
40465;Laerm;30489;48.982;8.394;2023-09-19T08:48:27;40.44;38.81;41.75;;
40465;Laerm;30489;48.982;8.394;2023-09-19T08:50:43;40.46;38.81;41.82;;
40465;Laerm;30489;48.982;8.394;2023-09-19T08:52:59;40.53;38.95;41.82;;
40465;Laerm;30489;48.982;8.394;2023-09-19T08:55:11;40.54;39.08;41.89;;
40465;Laerm;30489;48.982;8.394;2023-09-19T08:57:22;40.69;39.08;42.09;;
40465;Laerm;30489;48.982;8.394;2023-09-19T08:59:33;40.68;38.95;42.03;;
40465;Laerm;30489;48.982;8.394;2023-09-19T09:01:45;40.76;39.34;42.03;;
40465;Laerm;30489;48.982;8.394;2023-09-19T09:03:56;40.81;39.46;42.22;;
40465;Laerm;30489;48.982;8.394;2023-09-19T09:06:07;40.88;39.34;42.09;;
40465;Laerm;30489;48.982;8.394;2023-09-19T09:08:20;40.98;39.21;42.16;;
40465;Laerm;30489;48.982;8.394;2023-09-19T09:10:31;41.06;39.46;42.22;;
40465;Laerm;30489;48.982;8.394;2023-09-19T09:12:42;41.09;39.70;42.47;;
40465;Laerm;30489;48.982;8.394;2023-09-19T09:14:53;41.10;39.58;42.47;;
40465;Laerm;30489;48.982;8.394;2023-09-19T09:17:04;41.17;39.46;42.22;;
40465;Laerm;30489;48.982;8.394;2023-09-19T09:19:14;41.14;39.68;42.29;;
40465;Laerm;30489;48.982;8.394;2023-09-19T09:21:27;41.20;39.58;42.35;;
40465;Laerm;30489;48.982;8.394;2023-09-19T09:23:38;41.31;40.03;42.65;;
40465;Laerm;30489;48.982;8.394;2023-09-19T09:25:55;41.35;40.13;42.65;;
40465;Laerm;30489;48.982;8.394;2023-09-19T09:28:09;41.32;39.70;42.65;;
40465;Laerm;30489;48.982;8.394;2023-09-19T09:30:40;41.37;40.13;42.47;;
40465;Laerm;30489;48.982;8.394;2023-09-19T09:32:49;41.47;40.23;42.59;;
40465;Laerm;30489;48.982;8.394;2023-09-19T09:37:37;41.43;40.23;42.47;;
40465;Laerm;30489;48.982;8.394;2023-09-19T09:40:01;41.62;40.43;42.82;;
40465;Laerm;30489;48.982;8.394;2023-09-19T09:42:31;41.58;40.33;42.82;;
40465;Laerm;30489;48.982;8.394;2023-09-19T09:44:42;41.57;40.08;42.71;;
40465;Laerm;30489;48.982;8.394;2023-09-19T09:46:53;41.53;40.23;42.65;;
40465;Laerm;30489;48.982;8.394;2023-09-19T09:49:04;41.63;40.03;42.98;;
40465;Laerm;30489;48.982;8.394;2023-09-19T09:51:35;41.56;40.23;42.71;;
40465;Laerm;30489;48.982;8.394;2023-09-19T09:53:46;41.68;40.43;42.76;;
40465;Laerm;30489;48.982;8.394;2023-09-19T09:58:16;41.77;40.53;44.35;;
40465;Laerm;30489;48.982;8.394;2023-09-19T10:00:27;41.72;40.33;42.82;;
40465;Laerm;30489;48.982;8.394;2023-09-19T10:02:52;41.72;40.43;42.71;;
40465;Laerm;30489;48.982;8.394;2023-09-19T10:05:21;41.72;40.43;42.76;;
40465;Laerm;30489;48.982;8.394;2023-09-19T10:14:37;41.90;40.62;42.93;;
40465;Laerm;30489;48.982;8.394;2023-09-19T10:16:48;41.94;40.80;42.98;;
40465;Laerm;30489;48.982;8.394;2023-09-19T10:18:59;41.93;40.71;43.04;;
40465;Laerm;30489;48.982;8.394;2023-09-19T10:21:11;41.94;40.62;43.19;;
40465;Laerm;30489;48.982;8.394;2023-09-19T10:23:22;41.97;40.43;43.14;;
40465;Laerm;30489;48.982;8.394;2023-09-19T10:25:33;41.98;40.71;43.19;;
40465;Laerm;30489;48.982;8.394;2023-09-19T10:27:46;41.94;40.80;43.77;;
40465;Laerm;30489;48.982;8.394;2023-09-19T10:29:57;42.09;40.53;51.92;;
40465;Laerm;30489;48.982;8.394;2023-09-19T10:32:09;41.98;40.80;43.04;;
40465;Laerm;30489;48.982;8.394;2023-09-19T10:34:21;42.00;40.62;43.04;;
40465;Laerm;30489;48.982;8.394;2023-09-19T10:36:32;42.02;40.80;43.24;;
40465;Laerm;30489;48.982;8.394;2023-09-19T10:38:44;42.04;40.71;43.19;;
40465;Laerm;30489;48.982;8.394;2023-09-19T10:40:56;42.05;40.98;43.39;;
40465;Laerm;30489;48.982;8.394;2023-09-19T10:43:11;42.04;40.71;43.09;;
40465;Laerm;30489;48.982;8.394;2023-09-19T10:45:21;42.05;40.71;42.98;;
40465;Laerm;30489;48.982;8.394;2023-09-19T10:47:32;42.02;40.89;43.24;;
40465;Laerm;30489;48.982;8.394;2023-09-19T10:49:43;42.03;40.80;43.14;;
40465;Laerm;30489;48.982;8.394;2023-09-19T10:51:57;42.07;40.89;43.44;;
40465;Laerm;30489;48.982;8.394;2023-09-19T10:54:13;42.08;40.88;43.09;;
40465;Laerm;30489;48.982;8.394;2023-09-19T10:56:27;42.08;40.98;43.24;;
40465;Laerm;30489;48.982;8.394;2023-09-19T10:58:42;42.09;40.13;43.24;;
40465;Laerm;30489;48.982;8.394;2023-09-19T11:00:57;42.08;40.80;43.24;;
40465;Laerm;30489;48.982;8.394;2023-09-19T11:03:25;42.09;40.71;43.09;;
40465;Laerm;30489;48.982;8.394;2023-09-19T11:05:40;42.10;40.71;43.39;;
40465;Laerm;30489;48.982;8.394;2023-09-19T11:07:57;42.07;40.89;43.14;;
40465;Laerm;30489;48.982;8.394;2023-09-19T11:10:08;42.08;40.89;43.24;;
40465;Laerm;30489;48.982;8.394;2023-09-19T11:12:47;42.10;40.89;43.14;;
40465;Laerm;30489;48.982;8.394;2023-09-19T11:14:58;42.09;40.71;43.24;;
40465;Laerm;30489;48.982;8.394;2023-09-19T11:19:21;42.11;40.80;43.24;;
40465;Laerm;30489;48.982;8.394;2023-09-19T11:23:47;42.11;40.62;43.19;;
40465;Laerm;30489;48.982;8.394;2023-09-19T11:26:39;42.11;40.62;43.14;;
40465;Laerm;30489;48.982;8.394;2023-09-19T11:28:57;42.10;40.62;43.09;;
40465;Laerm;30489;48.982;8.394;2023-09-19T11:36:35;42.14;40.62;43.09;;
40465;Laerm;30489;48.982;8.394;2023-09-19T11:43:29;42.13;40.71;43.42;;
40465;Laerm;30489;48.982;8.394;2023-09-19T11:47:56;42.13;40.62;43.24;;
40465;Laerm;30489;48.982;8.394;2023-09-19T11:50:07;42.13;41.06;43.05;;
40465;Laerm;30489;48.982;8.394;2023-09-19T11:52:21;42.13;40.89;43.14;;
40465;Laerm;30489;48.982;8.394;2023-09-19T11:54:35;42.13;40.98;43.29;;
40465;Laerm;30489;48.982;8.394;2023-09-19T11:56:47;42.10;40.62;43.24;;
40465;Laerm;30489;48.982;8.394;2023-09-19T11:59:00;42.14;40.71;43.39;;
40465;Laerm;30489;48.982;8.394;2023-09-19T12:01:14;42.13;40.80;46.64;;
40465;Laerm;30489;48.982;8.394;2023-09-19T12:03:24;42.13;40.89;43.24;;
40465;Laerm;30489;48.982;8.394;2023-09-19T12:05:39;42.12;40.71;43.24;;
40465;Laerm;30489;48.982;8.394;2023-09-19T12:07:50;42.13;40.80;43.24;;
40465;Laerm;30489;48.982;8.394;2023-09-19T12:10:04;42.15;40.80;43.54;;
40465;Laerm;30489;48.982;8.394;2023-09-19T12:12:24;42.14;40.71;43.14;;
40465;Laerm;30489;48.982;8.394;2023-09-19T12:14:37;42.12;40.89;43.29;;
40465;Laerm;30489;48.982;8.394;2023-09-19T12:16:55;42.14;40.89;43.24;;
40465;Laerm;30489;48.982;8.394;2023-09-19T12:19:18;42.14;40.62;43.39;;
40465;Laerm;30489;48.982;8.394;2023-09-19T12:21:32;42.16;40.71;43.24;;
40465;Laerm;30489;48.982;8.394;2023-09-19T12:23:42;42.14;40.71;43.14;;
40465;Laerm;30489;48.982;8.394;2023-09-19T12:25:54;42.13;40.71;43.29;;
40465;Laerm;30489;48.982;8.394;2023-09-19T12:28:06;42.13;40.98;43.24;;
40465;Laerm;30489;48.982;8.394;2023-09-19T12:30:19;42.14;40.71;43.29;;
40465;Laerm;30489;48.982;8.394;2023-09-19T12:32:35;42.14;40.89;43.24;;
40465;Laerm;30489;48.982;8.394;2023-09-19T12:34:52;42.15;40.89;43.19;;
40465;Laerm;30489;48.982;8.394;2023-09-19T12:39:38;42.13;40.80;43.19;;
40465;Laerm;30489;48.982;8.394;2023-09-19T12:41:51;42.15;40.80;44.19;;
40465;Laerm;30489;48.982;8.394;2023-09-19T12:44:03;42.13;40.62;43.28;;
40465;Laerm;30489;48.982;8.394;2023-09-19T12:46:21;42.12;40.98;43.34;;
40465;Laerm;30489;48.982;8.394;2023-09-19T12:48:36;42.12;40.71;43.24;;
40465;Laerm;30489;48.982;8.394;2023-09-19T12:51:03;42.12;40.53;43.29;;
40465;Laerm;30489;48.982;8.394;2023-09-19T12:53:26;42.12;40.71;43.29;;
40465;Laerm;30489;48.982;8.394;2023-09-19T12:55:39;42.12;40.62;43.29;;
40465;Laerm;30489;48.982;8.394;2023-09-19T13:00:15;42.12;40.71;43.29;;
40465;Laerm;30489;48.982;8.394;2023-09-19T13:02:27;42.12;40.71;43.34;;
40465;Laerm;30489;48.982;8.394;2023-09-19T13:04:38;42.11;40.89;43.24;;
40465;Laerm;30489;48.982;8.394;2023-09-19T13:06:50;42.12;40.71;43.29;;
40465;Laerm;30489;48.982;8.394;2023-09-19T13:09:09;42.11;40.53;43.29;;
40465;Laerm;30489;48.982;8.394;2023-09-19T13:11:20;42.11;40.71;43.29;;